Terminal Aerodrome Forecast
Issued by NWS

Home | Current Version | Previous Version | Text Only | Print | Product List | Glossary On
Versions: 1 2 3 4 5 6 7 8 9 10 11 12 13 14 15 16 17 18 19 20 21 22 23 24 25 26 27 28 29 30 31 32
000
FTUS45 KBOU 221504 AAA
TAFBJC
TAF AMD
KBJC 221504Z 2215/2312 VRB05KT P6SM VCSH SCT010 BKN060
      TEMPO 2215/2218 3SM -SHSN OVC010
     FM221800 VRB05KT P6SM VCSH SCT015 OVC030
     FM230100 VRB04KT P6SM VCSH SCT020 OVC030
      TEMPO 2302/2306 6SM -SHSN OVC020
     FM230600 22005KT P6SM VCFG OVC010=

USA.gov is the U.S. government's official web portal to all federal, state and local government web resources and services.